createdAt,value
2019-06-01T04:00:25.954Z,718
2019-06-01T04:03:53.980Z,719
2019-06-01T04:07:22.011Z,789
2019-06-01T04:10:50.081Z,839
2019-06-01T04:14:18.168Z,836
2019-06-01T04:17:46.239Z,811
2019-06-01T04:21:15.299Z,622
2019-06-01T04:24:43.382Z,533
2019-06-01T04:28:14.602Z,450
2019-06-01T04:31:42.624Z,384
2019-06-01T04:35:11.087Z,510
2019-06-01T04:38:39.686Z,696
2019-06-01T04:42:11.789Z,633
2019-06-01T04:45:40.768Z,548
2019-06-01T04:49:13.241Z,435
2019-06-01T04:52:41.948Z,372
2019-06-01T04:56:13.062Z,503
2019-06-01T04:59:43.027Z,412
2019-06-01T05:03:15.201Z,344
2019-06-01T05:06:43.142Z,243
2019-06-01T05:10:15.986Z,368
2019-06-01T05:13:43.307Z,402
2019-06-01T05:17:14.968Z,470
2019-06-01T05:20:43.520Z,398
2019-06-01T05:24:14.726Z,366
2019-06-01T05:27:43.695Z,325
2019-06-01T05:31:23.382Z,307
2019-06-01T05:34:47.912Z,507
2019-06-01T05:38:16.493Z,642
2019-06-01T05:41:45.028Z,851
2019-06-01T05:45:17.136Z,831
2019-06-01T05:48:47.066Z,991
2019-06-01T05:52:16.303Z,1145
2019-06-01T05:55:45.440Z,1354
2019-06-01T05:59:13.886Z,1190
2019-06-01T06:02:43.727Z,1024
2019-06-01T06:06:12.060Z,926
2019-06-01T06:09:41.278Z,1176
2019-06-01T06:13:11.087Z,1268
2019-06-01T06:16:41.349Z,1391
2019-06-01T06:20:09.768Z,1872
2019-06-01T06:23:39.116Z,1704
2019-06-01T06:27:07.437Z,2252
2019-06-01T06:30:35.518Z,2142
2019-06-01T06:34:03.724Z,2090
2019-06-01T06:37:31.833Z,2090
2019-06-01T06:41:00.918Z,2141
2019-06-01T06:44:29.061Z,2152
2019-06-01T06:47:57.375Z,2100
2019-06-01T06:51:27.586Z,2414
2019-06-01T06:54:56.743Z,2809
2019-06-01T06:58:26.487Z,2645
2019-06-01T07:01:54.952Z,2714
2019-06-01T07:05:23.465Z,2911
2019-06-01T07:08:53.179Z,3662
2019-06-01T07:12:25.312Z,3521
2019-06-01T07:15:54.356Z,3814
2019-06-01T07:19:25.608Z,3709
2019-06-01T07:22:54.460Z,3428
2019-06-01T07:26:24.077Z,4010
2019-06-01T07:29:52.276Z,4233
2019-06-01T07:33:22.376Z,3994
2019-06-01T07:36:51.081Z,3500
2019-06-01T07:40:20.731Z,4147
2019-06-01T07:43:50.407Z,4291
2019-06-01T07:47:18.577Z,3461
2019-06-01T07:50:48.841Z,2404
2019-06-01T07:54:17.279Z,2080
2019-06-01T07:57:46.432Z,2332
2019-06-01T08:01:14.499Z,1922
2019-06-01T08:04:53.092Z,2123
2019-06-01T08:08:17.796Z,2021
2019-06-01T08:11:46.868Z,1826
2019-06-01T08:15:15.193Z,1492
2019-06-01T08:18:43.291Z,1706
2019-06-01T08:22:12.587Z,1704
2019-06-01T08:25:40.956Z,1760
2019-06-01T08:29:09.328Z,1930
2019-06-01T08:32:38.844Z,2086
2019-06-01T08:36:06.996Z,1752
2019-06-01T08:39:36.091Z,1798
2019-06-01T08:43:04.586Z,1958
2019-06-01T08:46:34.600Z,2223
2019-06-01T08:50:03.020Z,2985
2019-06-01T08:53:34.202Z,1946
2019-06-01T08:57:02.058Z,2996
2019-06-01T09:00:32.505Z,4418
2019-06-01T09:04:01.181Z,4454
2019-06-01T09:07:31.244Z,3993
2019-06-01T09:10:59.284Z,4535
2019-06-01T09:14:31.337Z,5029
2019-06-01T09:18:01.430Z,5289
2019-06-01T09:21:33.565Z,5902
2019-06-01T09:25:02.794Z,2839
2019-06-01T09:28:33.951Z,2211
2019-06-01T09:32:03.271Z,3998
2019-06-01T09:35:52.209Z,3709
2019-06-01T09:39:08.288Z,3758
2019-06-01T09:42:38.340Z,2364
2019-06-01T09:46:06.345Z,2957
2019-06-01T09:49:36.333Z,2570
2019-06-01T09:53:04.335Z,2289
2019-06-01T09:56:38.105Z,2931
2019-06-01T10:00:07.552Z,2661
2019-06-01T10:03:38.532Z,1726
2019-06-01T10:07:06.569Z,1501
2019-06-01T10:10:37.973Z,2042
2019-06-01T10:14:05.638Z,4962
2019-06-01T10:17:37.020Z,5487
2019-06-01T10:21:05.852Z,4713
2019-06-01T10:24:37.138Z,4969
2019-06-01T10:28:07.938Z,7917
2019-06-01T10:31:40.090Z,5839
2019-06-01T10:35:08.937Z,5734
2019-06-01T10:38:39.242Z,9467
2019-06-01T10:42:08.140Z,6109
2019-06-01T10:45:36.233Z,6601
2019-06-01T10:49:05.286Z,5627
2019-06-01T10:52:38.301Z,8215
2019-06-01T10:56:08.461Z,8814
2019-06-01T10:59:40.520Z,6261
2019-06-01T11:03:09.577Z,4500
2019-06-01T11:06:44.584Z,8672
2019-06-01T11:10:13.017Z,6792
2019-06-01T11:13:44.142Z,9053
2019-06-01T11:17:12.280Z,6041
2019-06-01T11:20:43.536Z,7160
2019-06-01T11:24:11.881Z,7687
2019-06-01T11:27:44.001Z,8221
2019-06-01T11:31:11.948Z,10519
2019-06-01T11:34:44.409Z,8383
2019-06-01T11:38:12.202Z,9079
2019-06-01T11:41:42.543Z,9206
2019-06-01T11:45:11.588Z,9074
2019-06-01T11:48:43.346Z,9724
2019-06-01T11:52:12.073Z,6333
2019-06-01T11:55:43.339Z,5436
2019-06-01T11:59:12.331Z,11297
2019-06-01T12:02:43.551Z,11082
2019-06-01T12:06:12.740Z,7564
2019-06-01T12:09:43.866Z,10813
2019-06-01T12:13:13.044Z,10012
2019-06-01T12:16:42.590Z,11780
2019-06-01T12:20:12.271Z,11502
2019-06-01T12:23:41.422Z,13437
2019-06-01T12:27:09.656Z,7441
2019-06-01T12:30:37.895Z,8336
2019-06-01T12:34:05.975Z,7079
2019-06-01T12:37:55.814Z,7818
2019-06-01T12:41:09.272Z,7096
2019-06-01T12:44:39.727Z,8004
2019-06-01T12:48:08.745Z,5893
2019-06-01T12:51:36.880Z,6563
2019-06-01T12:55:06.160Z,10903
2019-06-01T12:58:35.181Z,10934
2019-06-01T13:02:03.341Z,10242
2019-06-01T13:05:31.429Z,10022
2019-06-01T13:08:59.553Z,10246
2019-06-01T13:12:27.840Z,11714
2019-06-01T13:15:56.030Z,10418
2019-06-01T13:19:25.182Z,10356
2019-06-01T13:22:53.346Z,10035
2019-06-01T13:26:21.458Z,10489
2019-06-01T13:29:50.155Z,10219
2019-06-01T13:33:17.710Z,10013
2019-06-01T13:36:46.863Z,10230
2019-06-01T13:40:16.003Z,10894
2019-06-01T13:43:49.351Z,11007
2019-06-01T13:47:19.483Z,11248
2019-06-01T13:50:51.935Z,10871
2019-06-01T13:54:21.785Z,10766
2019-06-01T13:57:54.527Z,10920
2019-06-01T14:01:24.070Z,9411
2019-06-01T14:04:57.165Z,10567
2019-06-01T14:08:30.237Z,12508
2019-06-01T14:12:00.338Z,11434
2019-06-01T14:15:30.469Z,10917
2019-06-01T14:19:00.594Z,11278
2019-06-01T14:22:30.815Z,11838
2019-06-01T14:26:00.961Z,8407
2019-06-01T14:29:32.009Z,9010
2019-06-01T14:33:02.068Z,7003
2019-06-01T14:36:32.353Z,12241
2019-06-01T14:40:02.431Z,11614
2019-06-01T14:43:32.514Z,11278
2019-06-01T14:47:06.184Z,11399
2019-06-01T14:50:35.398Z,10265
2019-06-01T14:54:05.448Z,9329
2019-06-01T14:57:35.407Z,5248
2019-06-01T15:01:05.334Z,8493
2019-06-01T15:04:35.281Z,23680
2019-06-01T15:08:05.201Z,31256
2019-06-01T15:11:35.137Z,30848
2019-06-01T15:15:06.058Z,0
2019-06-01T15:18:34.994Z,8277
2019-06-01T15:22:03.966Z,12510
2019-06-01T15:25:31.896Z,57752
2019-06-01T15:29:00.835Z,8116
2019-06-01T15:32:30.808Z,8924
2019-06-01T15:36:01.822Z,7804
2019-06-01T15:39:29.647Z,7562
2019-06-01T15:43:01.382Z,7265
2019-06-01T15:46:29.479Z,6345
2019-06-01T15:49:58.031Z,7630
2019-06-01T15:53:26.364Z,53416
2019-06-01T15:56:58.360Z,19296
2019-06-01T16:00:28.168Z,64736
2019-06-01T16:03:59.218Z,60488
2019-06-01T16:07:29.038Z,7065
2019-06-01T16:11:04.361Z,5893
2019-06-01T16:14:31.995Z,6282
2019-06-01T16:18:04.068Z,6203
2019-06-01T16:21:55.727Z,6119
2019-06-01T16:25:23.661Z,5818
2019-06-01T16:28:51.690Z,5883
2019-06-01T16:32:19.610Z,5748
2019-06-01T16:35:47.589Z,5350
2019-06-01T16:39:15.536Z,5383
2019-06-01T16:42:43.469Z,5007
2019-06-01T16:46:11.411Z,4717
2019-06-01T16:49:39.415Z,4370
2019-06-01T16:53:08.349Z,4288
2019-06-01T16:56:36.967Z,4127
2019-06-01T17:00:07.894Z,3796
2019-06-01T17:03:35.810Z,3580
2019-06-01T17:07:08.295Z,3783
2019-06-01T17:10:36.652Z,3739
2019-06-01T17:14:04.834Z,3460
2019-06-01T17:17:33.515Z,3400
2019-06-01T17:21:05.557Z,3213
2019-06-01T17:24:34.356Z,3164
2019-06-01T17:28:05.174Z,2987
2019-06-01T17:31:33.188Z,3137
2019-06-01T17:35:02.882Z,3161
2019-06-01T17:38:32.499Z,3079
2019-06-01T17:42:02.443Z,3061
2019-06-01T17:45:30.358Z,1460
2019-06-01T17:48:58.300Z,1177
2019-06-01T17:52:26.278Z,1830
2019-06-01T17:55:55.014Z,2657
2019-06-01T17:59:22.939Z,2195
2019-06-01T18:02:50.966Z,2537
2019-06-01T18:06:19.819Z,2620
2019-06-01T18:09:47.832Z,3036
2019-06-01T18:13:15.769Z,2573
2019-06-01T18:16:43.706Z,1637
2019-06-01T18:20:13.616Z,1115
2019-06-01T18:23:42.069Z,1092
2019-06-01T18:27:10.625Z,1016
2019-06-01T18:30:37.964Z,944
2019-06-01T18:34:05.919Z,907
2019-06-01T18:37:34.846Z,747
2019-06-01T18:41:14.251Z,776
2019-06-01T18:44:38.661Z,602
2019-06-01T18:48:06.597Z,463
2019-06-01T18:51:35.521Z,421
2019-06-01T18:55:04.241Z,360
2019-06-01T18:58:33.413Z,307
2019-06-01T19:02:01.354Z,262
2019-06-01T19:05:30.309Z,231
2019-06-01T19:08:58.752Z,215
2019-06-01T19:12:27.865Z,185
2019-06-01T19:15:55.878Z,152
2019-06-01T19:19:24.095Z,126
2019-06-01T19:22:52.837Z,106
2019-06-01T19:26:20.952Z,88
2019-06-01T19:29:49.106Z,73
2019-06-01T19:33:20.203Z,59
2019-06-01T19:36:49.931Z,47
2019-06-01T19:40:19.097Z,35
2019-06-01T19:43:47.139Z,26
2019-06-01T19:47:18.726Z,19
2019-06-01T19:50:47.116Z,13
2019-06-01T19:54:17.190Z,10
2019-06-01T19:57:46.413Z,7
2019-06-01T20:01:18.754Z,5
2019-06-01T20:04:47.934Z,3
2019-06-01T20:08:18.936Z,2
2019-06-01T20:12:01.200Z,1
2019-06-01T20:15:23.134Z,1
2019-06-01T20:18:51.809Z,1
2019-06-01T20:22:19.790Z,1
2019-06-01T20:25:47.760Z,0
2019-06-01T20:29:19.749Z,0
2019-06-01T20:32:48.720Z,0
2019-06-01T20:36:18.069Z,0
2019-06-01T20:39:45.464Z,0
2019-06-01T20:43:16.600Z,0
2019-06-01T20:46:47.446Z,0
2019-06-01T20:50:18.563Z,0
2019-06-01T20:53:49.397Z,0
2019-06-01T20:57:21.469Z,0
2019-06-01T21:00:50.295Z,0
2019-06-01T21:04:22.280Z,0
2019-06-01T21:07:51.635Z,0
2019-06-01T21:11:22.609Z,0
2019-06-01T21:14:50.595Z,0
2019-06-01T21:18:22.650Z,0
2019-06-01T21:21:52.233Z,0
2019-06-01T21:25:22.768Z,0
2019-06-01T21:28:51.176Z,0
2019-06-01T21:32:22.151Z,0
2019-06-01T21:35:51.098Z,0
2019-06-01T21:39:21.531Z,0
2019-06-01T21:43:02.947Z,0
2019-06-01T21:46:31.195Z,0
2019-06-01T21:50:01.322Z,0
2019-06-01T21:53:33.427Z,0
2019-06-01T21:57:10.592Z,0
